Time;durP1;ratioP1;P1;durP2;ratioP2;P2;SDS_P1;SDS_P2;PMS_P1;PMS_P2;Temp;Humidity;BMP_temperature;BMP_pressure;BME280_temperature;BME280_humidity;BME280_pressure;Samples;Min_cycle;Max_cycle;Signal;HPM_P1;HPM_P2
2022/01/16 00:01:07;;;;;;;16.48;12.55;;;17.10;40.40;;;;;;5077606;28;20194;-71
2022/01/16 00:06:19;;;;;;;16.33;12.18;;;17.00;40.40;;;;;;5096173;28;20505;-69
2022/01/16 00:08:46;;;;;;;16.42;11.90;;;17.00;40.50;;;;;;5077220;28;20233;-70
2022/01/16 00:11:13;;;;;;;15.20;11.48;;;17.00;40.50;;;;;;5077445;28;20209;-71
2022/01/16 00:13:41;;;;;;;15.00;11.80;;;16.90;40.50;;;;;;5077048;28;20198;-69
2022/01/16 00:16:12;;;;;;;13.70;11.43;;;16.90;40.50;;;;;;5077473;28;20217;-68
2022/01/16 00:18:49;;;;;;;15.15;11.55;;;16.90;40.60;;;;;;5077686;28;20218;-69
2022/01/16 00:21:19;;;;;;;12.80;11.40;;;16.90;40.60;;;;;;5095531;28;20181;-70
2022/01/16 00:23:46;;;;;;;16.50;11.82;;;16.80;40.60;;;;;;5077013;28;20263;-69
2022/01/16 00:26:13;;;;;;;13.98;11.85;;;16.80;40.50;;;;;;5076593;28;20243;-68
2022/01/16 00:28:40;;;;;;;15.70;11.30;;;16.80;40.60;;;;;;5076916;28;20236;-70
2022/01/16 00:31:07;;;;;;;16.02;11.80;;;16.70;40.50;;;;;;5076692;28;20247;-70
2022/01/16 00:33:38;;;;;;;16.60;12.13;;;16.70;40.80;;;;;;5076922;28;20198;-69
2022/01/16 00:36:07;;;;;;;15.57;11.93;;;16.70;41.40;;;;;;5077052;28;20210;-69
2022/01/16 00:38:35;;;;;;;16.42;12.27;;;16.70;41.50;;;;;;5077001;28;20218;-68
2022/01/16 00:41:03;;;;;;;14.15;11.68;;;16.60;41.30;;;;;;5076774;28;20289;-69
2022/01/16 00:43:30;;;;;;;15.63;11.85;;;16.60;41.30;;;;;;5094622;28;20277;-70
2022/01/16 00:45:57;;;;;;;15.90;12.20;;;16.60;41.30;;;;;;5094988;28;20187;-70
2022/01/16 00:48:24;;;;;;;16.02;11.73;;;16.60;41.30;;;;;;5076599;28;20218;-68
2022/01/16 00:50:51;;;;;;;16.48;12.68;;;16.60;41.50;;;;;;5095148;28;20190;-71
2022/01/16 00:53:18;;;;;;;15.40;12.48;;;16.50;41.30;;;;;;5095246;28;20284;-70
2022/01/16 00:55:46;;;;;;;17.27;12.75;;;16.50;41.30;;;;;;5076682;28;20281;-67
2022/01/16 00:58:13;;;;;;;15.40;11.90;;;16.50;41.40;;;;;;5076324;28;20772;-68
2022/01/16 01:00:40;;;;;;;15.98;11.95;;;16.50;41.40;;;;;;5076095;28;20197;-70
2022/01/16 01:03:07;;;;;;;13.88;11.27;;;16.50;41.50;;;;;;5076531;28;20205;-70
2022/01/16 01:05:36;;;;;;;14.82;12.38;;;16.50;41.50;;;;;;5094951;28;20507;-69
2022/01/16 01:08:04;;;;;;;14.10;11.68;;;16.40;41.40;;;;;;5076531;28;20217;-68
2022/01/16 01:10:34;;;;;;;17.15;12.88;;;16.40;41.40;;;;;;5076440;28;20251;-68
2022/01/16 01:13:10;;;;;;;16.85;12.98;;;16.40;41.50;;;;;;5076230;28;20267;-68
2022/01/16 01:15:42;;;;;;;14.48;11.70;;;16.40;41.30;;;;;;5075818;28;20178;-68
2022/01/16 01:18:09;;;;;;;13.88;11.05;;;16.40;41.40;;;;;;5076034;28;20218;-67
2022/01/16 01:20:36;;;;;;;14.50;11.30;;;16.40;41.40;;;;;;5094514;28;20190;-67
2022/01/16 01:23:03;;;;;;;14.55;11.88;;;16.40;41.40;;;;;;5075957;28;20194;-68
2022/01/16 01:25:30;;;;;;;14.02;12.25;;;16.30;41.20;;;;;;5075539;28;20202;-68
2022/01/16 01:27:57;;;;;;;15.10;11.55;;;16.30;41.30;;;;;;5075498;28;20214;-67
2022/01/16 01:30:26;;;;;;;16.52;12.13;;;16.30;42.00;;;;;;5075478;28;20573;-69
2022/01/16 01:32:54;;;;;;;17.30;12.77;;;16.30;41.20;;;;;;5093871;28;20212;-68
2022/01/16 01:35:23;;;;;;;16.00;11.77;;;16.30;41.50;;;;;;5076077;28;20271;-67
2022/01/16 01:37:50;;;;;;;15.65;11.45;;;16.30;41.50;;;;;;5074324;28;20307;-65
2022/01/16 01:40:18;;;;;;;16.92;12.50;;;16.30;41.40;;;;;;5093366;28;20190;-69
2022/01/16 01:42:50;;;;;;;14.23;12.25;;;16.20;41.50;;;;;;5093398;28;20662;-69
2022/01/16 01:51:08;;;;;;;18.90;12.30;;;16.20;41.70;;;;;;5075547;28;20249;-71
2022/01/16 01:53:35;;;;;;;15.13;11.80;;;16.20;41.60;;;;;;5075303;28;20198;-72
2022/01/16 01:56:02;;;;;;;13.45;10.98;;;16.20;41.70;;;;;;5093269;28;20194;-72
2022/01/16 01:58:30;;;;;;;17.30;12.20;;;16.20;41.90;;;;;;5075356;28;20693;-69
2022/01/16 02:00:58;;;;;;;15.13;11.18;;;16.10;41.90;;;;;;5093488;28;20513;-72
2022/01/16 02:03:31;;;;;;;13.55;11.32;;;16.10;41.80;;;;;;5093170;28;20210;-72
2022/01/16 02:05:58;;;;;;;14.15;11.18;;;16.10;41.80;;;;;;5075156;28;20509;-73
2022/01/16 02:08:25;;;;;;;14.82;11.48;;;16.10;41.80;;;;;;5075113;28;20321;-73
2022/01/16 02:10:53;;;;;;;13.65;10.85;;;16.10;41.90;;;;;;5075007;28;20194;-71
2022/01/16 02:13:25;;;;;;;13.95;11.65;;;16.10;41.90;;;;;;5074830;28;20197;-71
2022/01/16 02:30:17;;;;;;;14.18;10.82;;;16.10;44.30;;;;;;5074519;28;20241;-72
2022/01/16 02:35:21;;;;;;;12.77;10.57;;;16.00;43.70;;;;;;5064648;28;20218;-72
2022/01/16 02:37:48;;;;;;;13.27;10.80;;;16.00;44.10;;;;;;5074404;28;20230;-72
2022/01/16 02:40:23;;;;;;;13.70;10.70;;;16.00;43.90;;;;;;5074874;28;20703;-72
2022/01/16 02:42:51;;;;;;;13.48;11.35;;;16.00;43.90;;;;;;5092976;28;20180;-72
2022/01/16 02:45:29;;;;;;;11.85;10.43;;;16.00;43.70;;;;;;5074751;28;20197;-71
2022/01/16 02:47:58;;;;;;;12.02;10.35;;;16.00;43.80;;;;;;5074623;28;20206;-71
2022/01/16 02:50:25;;;;;;;12.57;11.18;;;16.00;43.70;;;;;;5078691;28;20197;-71
2022/01/16 02:52:53;;;;;;;14.02;10.57;;;16.00;43.50;;;;;;5078702;28;20229;-72
2022/01/16 02:55:21;;;;;;;14.50;11.45;;;16.00;43.50;;;;;;5078786;28;20194;-71
2022/01/16 02:57:49;;;;;;;12.32;10.93;;;15.90;43.20;;;;;;5078625;28;20230;-72
2022/01/16 03:00:17;;;;;;;11.23;9.63;;;15.90;43.30;;;;;;5078860;28;20372;-69
2022/01/16 03:02:44;;;;;;;13.70;11.20;;;15.90;43.20;;;;;;5079174;28;20719;-71
2022/01/16 03:05:12;;;;;;;11.82;10.55;;;15.90;43.10;;;;;;5078697;28;20566;-72
2022/01/16 03:07:39;;;;;;;12.52;10.15;;;15.90;43.20;;;;;;5078806;28;20182;-71
2022/01/16 03:12:55;;;;;;;11.35;10.15;;;15.90;43.00;;;;;;5053670;28;20267;-72
2022/01/16 03:15:22;;;;;;;13.00;11.55;;;15.90;43.00;;;;;;5078716;28;20201;-72
2022/01/16 03:23:20;;;;;;;12.07;10.20;;;15.80;42.80;;;;;;5078810;28;20534;-72
2022/01/16 03:25:47;;;;;;;11.35;10.25;;;15.80;42.80;;;;;;5078392;28;20220;-71
2022/01/16 03:28:15;;;;;;;12.00;10.07;;;15.80;42.80;;;;;;5078971;28;20220;-69
2022/01/16 03:30:43;;;;;;;10.57;9.48;;;15.80;42.90;;;;;;5078981;28;20274;-71
2022/01/16 03:33:10;;;;;;;12.90;10.65;;;15.80;42.80;;;;;;5079073;28;20634;-71
2022/01/16 03:35:37;;;;;;;13.35;10.63;;;15.80;42.80;;;;;;5080350;28;20222;-71
2022/01/16 03:38:04;;;;;;;12.35;10.43;;;15.80;42.70;;;;;;5080164;28;20236;-70
2022/01/16 03:40:31;;;;;;;11.30;9.77;;;15.70;42.50;;;;;;5080073;28;20241;-72
2022/01/16 03:43:05;;;;;;;11.40;9.63;;;15.70;42.70;;;;;;5081355;28;20658;-71
2022/01/16 03:45:33;;;;;;;12.73;10.20;;;15.70;42.70;;;;;;5083584;28;20260;-71
2022/01/16 03:48:00;;;;;;;11.43;10.27;;;15.70;42.40;;;;;;5078442;28;20206;-71
2022/01/16 03:50:27;;;;;;;11.18;9.85;;;15.70;42.40;;;;;;5096221;28;20271;-71
2022/01/16 03:52:55;;;;;;;11.15;9.95;;;15.70;42.40;;;;;;5077837;28;20198;-71
2022/01/16 03:55:22;;;;;;;12.15;9.95;;;15.70;42.40;;;;;;5077744;28;20263;-72
2022/01/16 03:57:49;;;;;;;11.32;9.90;;;15.60;42.30;;;;;;5077452;28;20309;-71
2022/01/16 04:00:16;;;;;;;10.82;9.73;;;15.60;42.20;;;;;;5076566;28;20693;-71
2022/01/16 04:02:44;;;;;;;12.93;10.23;;;15.60;42.20;;;;;;5077772;28;20200;-71
2022/01/16 04:05:11;;;;;;;10.13;9.13;;;15.60;42.20;;;;;;5077200;28;20220;-71
2022/01/16 04:07:39;;;;;;;9.95;8.93;;;15.60;42.20;;;;;;5077618;28;20190;-71
2022/01/16 04:10:07;;;;;;;10.55;8.85;;;15.60;41.90;;;;;;5077579;28;20657;-71
2022/01/16 04:12:37;;;;;;;10.35;9.35;;;15.60;42.00;;;;;;5077584;28;20662;-73
2022/01/16 04:17:51;;;;;;;9.82;8.82;;;15.60;42.20;;;;;;5096289;28;20218;-72
2022/01/16 04:20:18;;;;;;;12.57;9.93;;;15.60;42.20;;;;;;5077560;28;20223;-71
2022/01/16 04:22:46;;;;;;;10.70;9.38;;;15.60;42.30;;;;;;5077274;28;20225;-71
2022/01/16 04:25:13;;;;;;;10.13;9.13;;;15.60;42.30;;;;;;5095182;28;20232;-72
2022/01/16 04:27:40;;;;;;;11.27;9.80;;;15.60;42.30;;;;;;5076935;28;20187;-72
2022/01/16 04:30:09;;;;;;;10.40;9.30;;;15.60;42.10;;;;;;5095012;28;20196;-72
2022/01/16 04:32:36;;;;;;;11.02;9.70;;;15.60;42.00;;;;;;5076817;28;20200;-71
2022/01/16 04:35:05;;;;;;;10.30;9.20;;;15.60;41.90;;;;;;5095189;28;20265;-71
2022/01/16 04:37:32;;;;;;;9.80;8.80;;;15.70;41.60;;;;;;5094884;28;20202;-70
2022/01/16 04:40:01;;;;;;;10.63;9.27;;;15.70;41.60;;;;;;5076610;28;20628;-72
2022/01/16 04:45:13;;;;;;;11.23;9.70;;;15.70;41.20;;;;;;5094661;28;20438;-72
2022/01/16 04:47:40;;;;;;;9.93;8.93;;;15.70;41.20;;;;;;5077281;28;20196;-71
2022/01/16 04:50:12;;;;;;;10.65;9.52;;;15.70;41.10;;;;;;5076523;28;20198;-70
2022/01/16 04:52:40;;;;;;;10.18;8.93;;;15.80;41.20;;;;;;5076144;28;20225;-71
2022/01/16 04:55:09;;;;;;;9.90;8.63;;;15.70;40.90;;;;;;5076229;28;20445;-71
2022/01/16 04:57:37;;;;;;;9.05;8.15;;;15.80;41.00;;;;;;5076083;28;20680;-71
2022/01/16 05:00:06;;;;;;;10.25;9.25;;;15.80;41.20;;;;;;5076199;28;20205;-71
2022/01/16 05:02:34;;;;;;;10.77;9.27;;;15.80;41.00;;;;;;5076352;28;20634;-72
2022/01/16 05:05:01;;;;;;;10.35;9.20;;;15.80;41.00;;;;;;5094303;28;20772;-71
2022/01/16 05:07:29;;;;;;;10.10;8.98;;;15.80;41.00;;;;;;5076440;28;20190;-69
2022/01/16 05:09:56;;;;;;;9.40;8.40;;;15.80;41.00;;;;;;5076041;28;20198;-72
2022/01/16 05:12:29;;;;;;;9.30;8.40;;;15.80;41.10;;;;;;5076044;28;20202;-71
2022/01/16 05:17:42;;;;;;;9.05;7.82;;;15.80;41.00;;;;;;5094048;28;20539;-70
2022/01/16 05:20:10;;;;;;;9.45;8.45;;;15.80;40.80;;;;;;5075718;28;20619;-71
2022/01/16 05:22:39;;;;;;;9.35;8.07;;;15.90;40.70;;;;;;5075950;28;20200;-71
2022/01/16 05:25:08;;;;;;;9.05;8.15;;;15.90;40.70;;;;;;5075602;28;20288;-72
2022/01/16 05:27:35;;;;;;;9.40;8.45;;;16.00;40.60;;;;;;5075918;28;20311;-71
2022/01/16 05:30:03;;;;;;;8.80;8.00;;;16.00;40.40;;;;;;5076884;28;20276;-71
2022/01/16 05:32:31;;;;;;;8.65;7.75;;;16.00;41.00;;;;;;5076472;28;20569;-71
2022/01/16 05:34:58;;;;;;;8.52;7.72;;;16.00;40.20;;;;;;5094475;28;20618;-71
2022/01/16 05:37:25;;;;;;;8.75;7.88;;;16.00;40.00;;;;;;5075812;28;20218;-72
2022/01/16 05:39:54;;;;;;;8.60;7.70;;;16.10;40.00;;;;;;5093650;28;20289;-72
2022/01/16 05:42:21;;;;;;;8.48;7.68;;;16.00;39.90;;;;;;5075581;28;20221;-71
2022/01/16 05:44:47;;;;;;;9.50;8.50;;;16.10;39.90;;;;;;5075632;28;20208;-71
2022/01/16 05:47:14;;;;;;;9.43;8.52;;;16.10;40.00;;;;;;5075482;28;20661;-69
2022/01/16 05:49:42;;;;;;;8.38;7.65;;;16.10;39.90;;;;;;5075227;28;20300;-71
2022/01/16 05:52:09;;;;;;;9.25;7.88;;;16.20;39.90;;;;;;5075295;28;20204;-71
2022/01/16 05:54:39;;;;;;;8.82;8.02;;;16.10;40.40;;;;;;5075438;28;20390;-72
2022/01/16 05:57:08;;;;;;;8.98;8.07;;;16.20;39.60;;;;;;5075067;28;20202;-71
2022/01/16 05:59:35;;;;;;;8.77;7.88;;;16.20;39.70;;;;;;5093337;28;20214;-72
2022/01/16 06:02:03;;;;;;;9.35;8.32;;;16.30;39.60;;;;;;5075406;28;20221;-71
2022/01/16 06:04:30;;;;;;;8.75;7.95;;;16.30;39.50;;;;;;5093488;28;20190;-71
2022/01/16 06:06:57;;;;;;;9.05;8.15;;;16.30;39.50;;;;;;5075427;28;20198;-70
2022/01/16 06:09:26;;;;;;;8.90;7.80;;;16.30;39.50;;;;;;5093249;28;20206;-72
2022/01/16 06:11:54;;;;;;;8.13;7.43;;;16.30;39.40;;;;;;5074993;28;20628;-71
2022/01/16 06:14:23;;;;;;;9.15;8.25;;;16.30;39.30;;;;;;5074990;28;20209;-71
2022/01/16 06:16:51;;;;;;;8.68;7.82;;;16.30;39.30;;;;;;5074882;28;20198;-71
2022/01/16 06:19:18;;;;;;;7.78;7.07;;;16.30;39.20;;;;;;5074668;28;20233;-71
2022/01/16 06:21:46;;;;;;;9.43;8.52;;;16.40;39.50;;;;;;5075055;28;20189;-72
2022/01/16 06:24:13;;;;;;;8.32;7.53;;;16.40;39.10;;;;;;5074504;28;20200;-72
2022/01/16 06:26:40;;;;;;;8.82;7.97;;;16.40;39.10;;;;;;5074820;28;20266;-70
2022/01/16 06:29:07;;;;;;;8.00;7.20;;;16.40;38.80;;;;;;5092842;28;20297;-72
2022/01/16 06:31:36;;;;;;;8.65;7.80;;;16.40;39.00;;;;;;5074918;28;20194;-71
2022/01/16 06:34:05;;;;;;;7.75;7.05;;;16.40;38.80;;;;;;5093279;28;20268;-71
2022/01/16 06:36:33;;;;;;;7.97;7.28;;;16.50;39.10;;;;;;5074567;28;20233;-71
2022/01/16 06:39:00;;;;;;;7.82;7.13;;;16.50;39.00;;;;;;5074538;28;20324;-70
2022/01/16 06:41:27;;;;;;;7.95;7.22;;;16.50;39.10;;;;;;5093223;28;20186;-71
2022/01/16 06:43:54;;;;;;;7.38;6.75;;;16.50;38.70;;;;;;5092631;28;20190;-71
2022/01/16 06:46:21;;;;;;;7.95;7.25;;;16.50;38.90;;;;;;5092867;28;20186;-71
2022/01/16 06:48:50;;;;;;;7.32;6.68;;;16.50;38.20;;;;;;5074557;28;20283;-72
2022/01/16 06:51:19;;;;;;;7.43;6.72;;;16.50;38.50;;;;;;5074806;28;20297;-71
2022/01/16 06:53:46;;;;;;;7.70;7.00;;;16.50;38.50;;;;;;5074538;28;20190;-71
2022/01/16 06:56:14;;;;;;;7.47;6.78;;;16.50;38.50;;;;;;5092653;28;20244;-72
2022/01/16 06:58:41;;;;;;;8.27;7.55;;;16.50;38.60;;;;;;5092719;28;20220;-71
2022/01/16 07:01:08;;;;;;;7.53;6.82;;;16.50;38.60;;;;;;5075067;28;20194;-72
2022/01/16 07:03:35;;;;;;;7.57;6.88;;;16.50;38.90;;;;;;5092853;28;20194;-70
2022/01/16 07:06:03;;;;;;;8.00;7.30;;;16.50;38.30;;;;;;5075692;28;20205;-70
2022/01/16 07:08:31;;;;;;;7.63;6.88;;;16.50;38.50;;;;;;5074645;28;20221;-71
2022/01/16 07:10:58;;;;;;;7.78;7.05;;;16.50;38.50;;;;;;5093372;28;20244;-71
2022/01/16 07:13:25;;;;;;;7.70;7.00;;;16.50;38.30;;;;;;5074764;28;20232;-71
2022/01/16 07:15:52;;;;;;;7.97;7.28;;;16.50;38.40;;;;;;5092438;28;20186;-71
2022/01/16 07:18:20;;;;;;;7.65;6.95;;;16.50;38.40;;;;;;5074679;28;20236;-71
2022/01/16 07:20:47;;;;;;;7.57;6.88;;;16.50;38.90;;;;;;5074341;28;20190;-71
2022/01/16 07:23:16;;;;;;;8.48;7.68;;;16.50;38.30;;;;;;5074472;28;20197;-71
2022/01/16 07:25:43;;;;;;;8.52;7.72;;;16.50;38.40;;;;;;5074827;28;20310;-70
2022/01/16 07:28:10;;;;;;;7.47;6.80;;;16.50;38.40;;;;;;5074548;28;20214;-72
2022/01/16 07:30:38;;;;;;;6.95;6.35;;;16.50;38.30;;;;;;5074626;28;20190;-71
2022/01/16 07:33:05;;;;;;;7.55;6.85;;;16.50;38.40;;;;;;5074679;28;20205;-71
2022/01/16 07:35:32;;;;;;;7.53;6.90;;;16.50;38.20;;;;;;5093064;28;20540;-72
2022/01/16 07:37:59;;;;;;;7.43;6.72;;;16.50;38.40;;;;;;5078095;28;20639;-71
2022/01/16 07:40:28;;;;;;;7.10;6.50;;;16.50;38.50;;;;;;5096331;28;20244;-71
2022/01/16 07:42:55;;;;;;;7.97;7.28;;;16.50;38.10;;;;;;5078068;28;20557;-71
2022/01/16 07:45:22;;;;;;;8.13;7.35;;;16.50;38.50;;;;;;5079460;28;20194;-72
2022/01/16 07:47:49;;;;;;;7.32;6.68;;;16.60;38.50;;;;;;5096454;28;20220;-71
2022/01/16 07:50:16;;;;;;;7.68;6.95;;;16.60;38.50;;;;;;5078466;28;20194;-70
2022/01/16 07:52:44;;;;;;;7.68;6.97;;;16.50;38.00;;;;;;5096664;28;20608;-72
2022/01/16 07:55:11;;;;;;;7.78;7.07;;;16.60;38.00;;;;;;5078139;28;20681;-71
2022/01/16 07:57:39;;;;;;;8.27;7.47;;;16.60;37.80;;;;;;5081150;28;20251;-71
2022/01/16 08:00:07;;;;;;;8.07;7.28;;;16.60;38.20;;;;;;5081133;28;20198;-72
2022/01/16 08:02:39;;;;;;;7.90;7.20;;;16.60;37.90;;;;;;5102105;28;20189;-71
2022/01/16 08:05:06;;;;;;;8.20;7.38;;;16.60;38.40;;;;;;5084660;28;20606;-69
2022/01/16 08:07:33;;;;;;;8.23;7.53;;;16.60;38.20;;;;;;5098867;28;20273;-72
2022/01/16 08:10:01;;;;;;;8.18;7.38;;;16.60;37.90;;;;;;5096381;28;20212;-71
2022/01/16 08:12:28;;;;;;;7.20;6.50;;;16.60;37.40;;;;;;5078093;28;20545;-71
2022/01/16 08:14:56;;;;;;;8.18;7.47;;;16.70;37.90;;;;;;5078265;28;20194;-71
2022/01/16 08:17:23;;;;;;;7.57;6.88;;;16.70;37.80;;;;;;5078125;28;20194;-72
2022/01/16 08:19:50;;;;;;;7.95;7.25;;;16.70;38.00;;;;;;5096474;28;20212;-71
2022/01/16 08:22:17;;;;;;;7.32;6.72;;;16.70;38.00;;;;;;5079482;28;20571;-70
2022/01/16 08:24:44;;;;;;;8.23;7.53;;;16.70;37.60;;;;;;5078382;28;20229;-71
2022/01/16 08:27:11;;;;;;;7.40;6.80;;;16.70;38.00;;;;;;5078137;28;20205;-71
2022/01/16 08:29:38;;;;;;;7.60;6.90;;;16.70;38.20;;;;;;5078581;28;20313;-70
2022/01/16 08:32:07;;;;;;;7.40;6.80;;;16.80;38.10;;;;;;5095830;28;20248;-72
2022/01/16 08:34:34;;;;;;;7.28;6.57;;;16.80;38.20;;;;;;5095731;28;20217;-71
2022/01/16 08:37:02;;;;;;;7.78;7.07;;;16.80;38.00;;;;;;5096011;28;20198;-71
2022/01/16 08:39:29;;;;;;;7.85;7.15;;;16.80;38.00;;;;;;5077385;28;20347;-72
2022/01/16 08:41:56;;;;;;;7.47;6.78;;;16.80;37.90;;;;;;5095632;28;20182;-72
2022/01/16 08:44:23;;;;;;;7.40;6.70;;;16.80;38.00;;;;;;5077463;28;20226;-71
2022/01/16 08:46:51;;;;;;;7.78;7.07;;;16.90;38.00;;;;;;5076626;28;20205;-70
2022/01/16 08:49:19;;;;;;;8.68;7.60;;;16.80;38.00;;;;;;5077037;28;20217;-71
2022/01/16 08:51:46;;;;;;;8.20;7.43;;;16.90;37.70;;;;;;5077086;28;20200;-72
2022/01/16 08:54:13;;;;;;;7.40;6.80;;;16.90;37.80;;;;;;5076518;28;20198;-72
2022/01/16 08:56:40;;;;;;;7.03;6.43;;;16.90;37.80;;;;;;5076709;28;20198;-71
2022/01/16 08:59:08;;;;;;;7.88;7.13;;;16.90;37.80;;;;;;5076416;28;20267;-72
2022/01/16 09:01:35;;;;;;;8.27;7.47;;;16.90;37.70;;;;;;5076675;28;20201;-72
2022/01/16 09:04:02;;;;;;;8.10;7.30;;;16.90;37.70;;;;;;5076507;28;20288;-71
2022/01/16 09:06:31;;;;;;;8.50;7.70;;;16.90;37.90;;;;;;5076284;28;20263;-70
2022/01/16 09:08:57;;;;;;;7.85;7.15;;;16.90;37.80;;;;;;5076385;28;20228;-71
2022/01/16 09:11:25;;;;;;;7.88;7.18;;;16.90;38.00;;;;;;5076194;28;20221;-72
2022/01/16 09:13:52;;;;;;;8.18;7.38;;;17.00;37.90;;;;;;5094487;28;20198;-69
2022/01/16 09:16:20;;;;;;;8.50;7.70;;;16.90;37.80;;;;;;5094353;28;20191;-72
2022/01/16 09:18:47;;;;;;;8.10;7.40;;;17.00;37.80;;;;;;5075894;28;20233;-71
2022/01/16 09:21:15;;;;;;;8.68;7.88;;;17.00;37.60;;;;;;5094166;28;20228;-71
2022/01/16 09:23:43;;;;;;;8.27;7.53;;;17.00;37.10;;;;;;5094134;28;20216;-71
2022/01/16 09:26:10;;;;;;;7.97;7.18;;;17.00;37.30;;;;;;5075747;28;20232;-71
2022/01/16 09:28:38;;;;;;;7.90;7.10;;;17.00;37.20;;;;;;5075826;28;20220;-71
2022/01/16 09:31:05;;;;;;;8.93;8.13;;;17.00;37.60;;;;;;5075767;28;20217;-71
2022/01/16 09:33:32;;;;;;;8.30;7.60;;;17.10;37.50;;;;;;5075684;28;20202;-71
2022/01/16 09:35:59;;;;;;;9.23;8.43;;;17.00;37.40;;;;;;5075669;28;20235;-71
2022/01/16 09:38:26;;;;;;;8.70;7.95;;;17.10;37.80;;;;;;5075809;28;20216;-71
2022/01/16 09:40:55;;;;;;;8.93;8.00;;;17.10;37.90;;;;;;5094350;28;20192;-71
2022/01/16 09:43:22;;;;;;;9.50;8.50;;;17.10;38.10;;;;;;5094052;28;20201;-69
2022/01/16 09:45:49;;;;;;;8.77;7.97;;;17.10;38.20;;;;;;5093021;28;20489;-71
2022/01/16 09:48:16;;;;;;;135.02;83.75;;;17.10;38.50;;;;;;5075736;28;20225;-71
2022/01/16 09:50:43;;;;;;;928.83;615.55;;;17.20;38.20;;;;;;5075818;28;20194;-71
2022/01/16 09:53:12;;;;;;;521.95;391.85;;;17.20;43.60;;;;;;5075925;28;20665;-71
2022/01/16 09:55:39;;;;;;;365.42;280.42;;;17.30;46.00;;;;;;5076131;28;20569;-71
2022/01/16 09:58:07;;;;;;;293.95;212.40;;;17.30;43.70;;;;;;5075292;28;20732;-70
2022/01/16 10:00:35;;;;;;;227.65;166.52;;;17.40;42.90;;;;;;5075828;28;20229;-71
2022/01/16 10:03:02;;;;;;;216.40;159.65;;;17.40;41.80;;;;;;5093550;28;20190;-72
2022/01/16 10:05:31;;;;;;;212.57;155.32;;;17.50;42.00;;;;;;5093558;28;20186;-71
2022/01/16 10:07:58;;;;;;;202.40;148.68;;;17.60;41.80;;;;;;5075134;28;20221;-71
2022/01/16 10:10:27;;;;;;;203.38;148.88;;;17.60;41.70;;;;;;5075272;28;20247;-71
2022/01/16 10:12:57;;;;;;;186.98;142.43;;;17.70;41.70;;;;;;5075660;28;20475;-70
2022/01/16 10:15:27;;;;;;;188.00;136.70;;;17.70;41.70;;;;;;5074907;28;20672;-71
2022/01/16 10:17:55;;;;;;;174.50;132.50;;;17.70;41.70;;;;;;5074767;28;20218;-72
2022/01/16 10:20:22;;;;;;;169.73;127.63;;;17.80;42.60;;;;;;5074869;28;20221;-71
2022/01/16 10:22:50;;;;;;;162.63;123.28;;;17.80;41.60;;;;;;5074859;28;20665;-70
2022/01/16 10:25:19;;;;;;;162.45;125.93;;;17.90;41.70;;;;;;5092685;28;20274;-72
2022/01/16 10:27:46;;;;;;;140.85;106.20;;;17.90;41.60;;;;;;5074984;28;20198;-72
2022/01/16 10:30:17;;;;;;;122.68;89.55;;;17.90;40.60;;;;;;5074787;28;20213;-72
2022/01/16 10:32:46;;;;;;;114.50;82.47;;;17.90;39.90;;;;;;5074671;28;20662;-71
2022/01/16 10:35:14;;;;;;;102.80;74.60;;;17.90;39.60;;;;;;5092603;28;20186;-72
2022/01/16 10:37:42;;;;;;;91.80;71.07;;;17.90;39.40;;;;;;5074357;28;20206;-70
2022/01/16 10:40:11;;;;;;;83.65;63.83;;;18.00;39.30;;;;;;5092419;28;20228;-71
2022/01/16 10:42:39;;;;;;;91.00;68.88;;;18.00;39.70;;;;;;5074493;28;20296;-69
2022/01/16 10:45:08;;;;;;;82.65;63.95;;;18.10;39.60;;;;;;5074240;28;20199;-72
2022/01/16 10:47:37;;;;;;;80.57;62.95;;;18.00;39.70;;;;;;5074565;28;20749;-71
2022/01/16 10:50:08;;;;;;;74.05;60.63;;;18.10;39.60;;;;;;5074033;28;20437;-72
2022/01/16 10:52:47;;;;;;;75.38;59.90;;;18.20;39.90;;;;;;5092583;28;20253;-71
2022/01/16 10:55:14;;;;;;;75.63;58.25;;;18.20;40.40;;;;;;5074448;28;20638;-70
2022/01/16 10:57:41;;;;;;;65.35;53.08;;;18.30;40.10;;;;;;5074235;28;20271;-71
2022/01/16 11:00:11;;;;;;;72.00;53.15;;;18.30;39.90;;;;;;5092295;28;20206;-71
2022/01/16 11:02:38;;;;;;;65.85;51.25;;;18.30;40.00;;;;;;5074779;28;20198;-70
2022/01/16 11:05:11;;;;;;;68.18;51.80;;;18.30;40.10;;;;;;5092811;28;20561;-69
2022/01/16 11:07:38;;;;;;;65.57;48.42;;;18.40;39.50;;;;;;5092468;28;20196;-71
2022/01/16 11:10:23;;;;;;;63.55;48.38;;;18.40;40.00;;;;;;5076149;28;20189;-71
2022/01/16 11:12:50;;;;;;;55.55;43.47;;;18.30;39.90;;;;;;5078489;28;20198;-71
2022/01/16 11:15:17;;;;;;;55.88;44.53;;;18.30;39.90;;;;;;5078115;28;20216;-71
2022/01/16 11:17:45;;;;;;;52.83;43.38;;;18.40;40.00;;;;;;5078013;28;20218;-71
2022/01/16 11:20:14;;;;;;;50.63;41.65;;;18.30;39.90;;;;;;5078167;28;20218;-71
2022/01/16 11:22:58;;;;;;;51.42;42.13;;;18.40;39.90;;;;;;5078110;28;20194;-71
2022/01/16 11:25:31;;;;;;;50.00;39.40;;;18.30;39.90;;;;;;5077842;28;20987;-71
2022/01/16 11:28:01;;;;;;;49.65;37.72;;;18.30;39.90;;;;;;5077678;28;20683;-71
2022/01/16 11:30:28;;;;;;;44.55;37.35;;;18.40;39.60;;;;;;5096156;28;20689;-72
2022/01/16 11:32:56;;;;;;;115.25;66.95;;;18.40;40.00;;;;;;5095965;28;20527;-72
2022/01/16 11:35:24;;;;;;;71.28;46.20;;;18.40;39.80;;;;;;5077528;28;20205;-71
2022/01/16 11:37:51;;;;;;;66.82;44.33;;;18.40;39.80;;;;;;5077672;28;20218;-70
2022/01/16 11:40:24;;;;;;;66.78;45.30;;;18.40;39.80;;;;;;5077585;28;20221;-72
2022/01/16 11:43:13;;;;;;;66.60;43.83;;;18.40;39.70;;;;;;5077647;28;20271;-72
2022/01/16 11:45:47;;;;;;;60.70;41.83;;;18.40;39.60;;;;;;5095940;28;20186;-72
2022/01/16 11:48:20;;;;;;;59.55;40.20;;;18.40;39.60;;;;;;5077371;28;20218;-71
2022/01/16 11:50:49;;;;;;;62.20;41.42;;;18.40;39.50;;;;;;5095820;28;20171;-70
2022/01/16 11:53:49;;;;;;;53.13;37.25;;;18.30;39.60;;;;;;5095621;28;20231;-71
2022/01/16 11:56:50;;;;;;;50.85;35.53;;;18.30;39.60;;;;;;5095457;28;20190;-71
2022/01/16 11:59:19;;;;;;;49.67;35.17;;;18.30;39.60;;;;;;5077345;28;20719;-69
2022/01/16 12:01:47;;;;;;;50.90;35.58;;;18.30;39.60;;;;;;5095522;28;20182;-72
2022/01/16 12:04:47;;;;;;;59.75;37.17;;;18.30;39.50;;;;;;5095812;28;20231;-71
2022/01/16 12:08:00;;;;;;;44.90;32.65;;;18.30;39.50;;;;;;5077611;28;20201;-72
2022/01/16 12:10:50;;;;;;;43.78;32.22;;;18.30;39.60;;;;;;5077524;28;20247;-71
2022/01/16 12:13:43;;;;;;;47.17;31.13;;;18.30;39.40;;;;;;5077316;28;20567;-72
2022/01/16 12:16:32;;;;;;;42.28;30.85;;;18.30;39.40;;;;;;5095384;28;20262;-71
2022/01/16 12:19:33;;;;;;;39.90;29.05;;;18.30;39.40;;;;;;5077009;28;20233;-71
2022/01/16 12:22:00;;;;;;;42.38;29.33;;;18.30;39.50;;;;;;5076496;28;20190;-71
2022/01/16 12:24:34;;;;;;;37.72;28.08;;;18.30;39.30;;;;;;5076893;28;20209;-71
2022/01/16 12:27:25;;;;;;;37.55;26.25;;;18.30;39.90;;;;;;5077025;28;20680;-72
2022/01/16 12:30:37;;;;;;;34.72;25.45;;;18.30;39.00;;;;;;5094885;28;20210;-71
2022/01/16 12:33:12;;;;;;;35.05;24.73;;;18.30;38.90;;;;;;5094967;28;20246;-72
2022/01/16 12:36:13;;;;;;;31.73;23.83;;;18.30;38.80;;;;;;5095119;28;20209;-70
2022/01/16 12:38:53;;;;;;;30.60;22.75;;;18.20;38.20;;;;;;5095032;28;20283;-72
2022/01/16 12:41:25;;;;;;;30.88;22.55;;;18.30;38.30;;;;;;5076917;28;20217;-72
2022/01/16 12:43:58;;;;;;;28.40;22.02;;;18.30;38.40;;;;;;5077246;28;20194;-72
2022/01/16 12:46:27;;;;;;;29.08;21.52;;;18.30;38.30;;;;;;5077526;28;20190;-71
2022/01/16 12:48:55;;;;;;;28.60;21.77;;;18.30;38.20;;;;;;5095243;28;20209;-72
2022/01/16 12:51:25;;;;;;;27.80;20.45;;;18.30;38.20;;;;;;5076985;28;20221;-73
2022/01/16 12:53:56;;;;;;;26.25;20.50;;;18.30;38.20;;;;;;5076798;28;20194;-70
2022/01/16 12:56:28;;;;;;;26.05;20.08;;;18.30;38.40;;;;;;5076487;28;20251;-71
2022/01/16 12:58:59;;;;;;;24.95;17.95;;;18.30;38.50;;;;;;5094666;28;20229;-72
2022/01/16 13:01:27;;;;;;;26.73;19.95;;;18.20;38.30;;;;;;5094445;28;20221;-71
2022/01/16 13:03:54;;;;;;;23.73;17.92;;;18.30;38.10;;;;;;5076829;28;20289;-73
2022/01/16 13:06:22;;;;;;;22.75;17.27;;;18.30;38.40;;;;;;5076503;28;20194;-70
2022/01/16 13:08:57;;;;;;;21.80;16.70;;;18.30;38.30;;;;;;5094233;28;20247;-71
2022/01/16 13:11:25;;;;;;;22.15;16.10;;;18.30;38.10;;;;;;5094524;28;20269;-72
2022/01/16 13:13:52;;;;;;;20.33;16.00;;;18.30;38.10;;;;;;5076266;28;20202;-71
2022/01/16 13:16:23;;;;;;;20.83;15.98;;;18.30;38.10;;;;;;5094118;28;20190;-71
2022/01/16 13:19:13;;;;;;;21.40;15.13;;;18.30;38.70;;;;;;5094101;28;20206;-72
2022/01/16 13:21:47;;;;;;;20.00;15.68;;;18.30;38.20;;;;;;5075887;28;20305;-72
2022/01/16 13:24:24;;;;;;;18.48;14.52;;;18.30;38.10;;;;;;5076104;28;20190;-70
2022/01/16 13:26:51;;;;;;;16.33;14.07;;;18.30;38.20;;;;;;5075744;28;20287;-71